Arambare, Brazil
Current Conditions -  °F | °C
As of 10:00 AM on Friday 24 Oct 2014 (Local Time) from SBPA Reporting Station
Haze Haze  
Wind Chill: 72°   Ceiling: 1200
Heat Index: 72°   Visibility: 3mi
Dew Point: 64°   Wind: 2mph
Humidity: 78%   Direction: 40°NE
Pressure: 29.97"   Gusts: NA
Location:  30.91°S, 51.5°W
Report Text: SBPA 241200Z 04002KT 5000 HZ BKN012 22/18 Q1015
Loading
Personal Weather Stations






























Interactive Weather Map
Tropical Storm Tracking
New forecast layout! Learn more

10-Day Weather Forecast

Advertisements
Track Severe Weather on mobile